クェゼリン環礁 の空港の天気 - METARとTAF

バックホルツ陸軍飛行場 ( PKWA / KWA ) - マーシャル諸島 クェゼリン環礁
飛行場実況気象(Metar)
観測時間02/18 02:40 MHT (02/17 14:40 UTC)
風向・風速東 9m/s
視程8050m
天気現象霧雨
全天の4割程度の雲 雲底高度 240m
全天の4割程度の雲 雲底高度 980m
全天の8割程度の雲 雲底高度 1680m
気温25.3℃
湿度99%
気圧1007hPa
METARPKWA 171440Z AUTO 08018KT 5SM DZ SCT008 SCT032 BKN055 25/25 A2974 RMK AO2 P0003 T02530251
過去の天気等 Google飛行場航空写真 Wunderground天気予報

過去48時間のMETAR

飛行場予報(TAF)
発表時間: 2/17 23:35 MHT (2/17 11:35 UTC)
予報対象時間: 18日0時 MHT ~ 19日0時 MHT
風向・風速東 10m/s 瞬間風速 15m/s
視程10km以上
天気現象周辺でしゅう雨
全天の4割程度の雲 雲底高度 550m
全天の4割程度の雲 雲底高度 1220m
全天の8割程度の雲 雲底高度 3050m
18日0時 MHT ~ 18日4時 MHT に一時的に
視程4830m
天気現象しゅう雨
全天の8割程度の雲 雲底高度 490m
全天の8割程度の雲 雲底高度 1220m
PKWA 171135Z 1712/1812 08020G30KT P6SM VCSH SCT018 SCT040 BKN100
TEMPO 1712/1716 3SM SHRA BKN016 BKN040